createdAt,value
2019-04-29T00:00:02.924Z,1021.98
2019-04-29T00:01:02.933Z,1021.98
2019-04-29T00:01:32.971Z,1021.96
2019-04-29T00:02:02.921Z,1021.95
2019-04-29T00:02:33.085Z,1021.96
2019-04-29T00:03:32.998Z,1021.97
2019-04-29T00:04:04.179Z,1021.92
2019-04-29T00:04:32.986Z,1021.95
2019-04-29T00:05:05.181Z,1021.95
2019-04-29T00:06:02.923Z,1021.92
2019-04-29T00:06:32.985Z,1021.92
2019-04-29T00:07:02.923Z,1021.93
2019-04-29T00:07:32.996Z,1021.92
2019-04-29T00:08:32.988Z,1021.91
2019-04-29T00:09:02.925Z,1021.93
2019-04-29T00:09:32.979Z,1021.90
2019-04-29T00:10:02.919Z,1021.90
2019-04-29T00:11:02.925Z,1021.90
2019-04-29T00:11:32.983Z,1021.91
2019-04-29T00:12:02.925Z,1021.94
2019-04-29T00:12:33.000Z,1021.95
2019-04-29T00:13:32.995Z,1021.95
2019-04-29T00:14:02.956Z,1021.95
2019-04-29T00:14:34.196Z,1021.98
2019-04-29T00:15:02.922Z,1021.98
2019-04-29T00:15:35.093Z,1021.99
2019-04-29T00:16:32.987Z,1021.98
2019-04-29T00:17:02.921Z,1021.96
2019-04-29T00:17:32.991Z,1021.97
2019-04-29T00:18:33.029Z,1021.96
2019-04-29T00:19:02.925Z,1021.97
2019-04-29T00:19:35.885Z,1021.95
2019-04-29T00:20:02.935Z,1021.97
2019-04-29T00:21:02.936Z,1021.95
2019-04-29T00:21:33.061Z,1021.98
2019-04-29T00:22:02.935Z,1021.99
2019-04-29T00:22:33.045Z,1021.95
2019-04-29T00:23:33.031Z,1022.01
2019-04-29T00:24:05.221Z,1022.00
2019-04-29T00:24:33.036Z,1021.99
2019-04-29T00:25:04.516Z,1021.99
2019-04-29T00:26:05.633Z,1022.02
2019-04-29T00:26:32.994Z,1022.02
2019-04-29T00:27:02.931Z,1022.04
2019-04-29T00:27:33.001Z,1022.07
2019-04-29T00:28:33.003Z,1022.07
2019-04-29T00:29:02.934Z,1022.07
2019-04-29T00:29:33.019Z,1022.08
2019-04-29T00:30:02.942Z,1022.07
2019-04-29T00:31:02.931Z,1022.09
2019-04-29T00:31:32.993Z,1022.11
2019-04-29T00:32:02.935Z,1022.13
2019-04-29T00:32:32.988Z,1022.11
2019-04-29T00:33:03.051Z,1022.12
2019-04-29T00:34:02.968Z,1022.16
2019-04-29T00:34:32.986Z,1022.14
2019-04-29T00:35:03.030Z,1022.16
2019-04-29T00:35:34.181Z,1022.16
2019-04-29T00:36:35.131Z,1022.19
2019-04-29T00:37:03.046Z,1022.16
2019-04-29T00:37:33.008Z,1022.21
2019-04-29T00:38:02.945Z,1022.22
2019-04-29T00:39:03.023Z,1022.21
2019-04-29T00:39:33.005Z,1022.19
2019-04-29T00:40:02.936Z,1022.19
2019-04-29T00:40:32.985Z,1022.17
2019-04-29T00:41:32.993Z,1022.19
2019-04-29T00:42:02.933Z,1022.19
2019-04-29T00:42:32.989Z,1022.18
2019-04-29T00:43:02.935Z,1022.18
2019-04-29T00:43:32.988Z,1022.18
2019-04-29T00:44:32.987Z,1022.18
2019-04-29T00:45:02.928Z,1022.17
2019-04-29T00:45:32.999Z,1022.16
2019-04-29T00:46:04.342Z,1022.18
2019-04-29T00:47:05.142Z,1022.19
2019-04-29T00:47:32.985Z,1022.20
2019-04-29T00:48:02.933Z,1022.20
2019-04-29T00:48:33.003Z,1022.19
2019-04-29T00:49:33.025Z,1022.19
2019-04-29T00:50:02.931Z,1022.21
2019-04-29T00:50:32.983Z,1022.19
2019-04-29T00:51:02.956Z,1022.21
2019-04-29T00:52:02.937Z,1022.23
2019-04-29T00:52:33.007Z,1022.22
2019-04-29T00:53:02.942Z,1022.24
2019-04-29T00:53:32.990Z,1022.23
2019-04-29T00:54:33.029Z,1022.22
2019-04-29T00:55:02.929Z,1022.28
2019-04-29T00:55:32.994Z,1022.27
2019-04-29T00:56:02.968Z,1022.28
2019-04-29T00:56:34.169Z,1022.26
2019-04-29T00:57:35.112Z,1022.27
2019-04-29T00:58:02.930Z,1022.25
2019-04-29T00:58:32.990Z,1022.23
2019-04-29T00:59:33.010Z,1022.21
2019-04-29T01:00:02.973Z,1022.22
2019-04-29T01:00:33.002Z,1022.20
2019-04-29T01:01:02.936Z,1022.20
2019-04-29T01:02:02.938Z,1022.19
2019-04-29T01:02:32.995Z,1022.20
2019-04-29T01:03:02.964Z,1022.19
2019-04-29T01:03:33.007Z,1022.18
2019-04-29T01:04:32.996Z,1022.16
2019-04-29T01:05:02.934Z,1022.15
2019-04-29T01:05:33.000Z,1022.13
2019-04-29T01:06:02.933Z,1022.13
2019-04-29T01:07:04.204Z,1022.09
2019-04-29T01:07:33.159Z,1022.09
2019-04-29T01:08:05.194Z,1022.12
2019-04-29T01:08:33.060Z,1022.13
2019-04-29T01:09:33.040Z,1022.11
2019-04-29T01:10:02.999Z,1022.12
2019-04-29T01:10:33.103Z,1022.13
2019-04-29T01:11:02.940Z,1022.13
2019-04-29T01:12:02.938Z,1022.12
2019-04-29T01:12:33.088Z,1022.10
2019-04-29T01:13:02.937Z,1022.09
2019-04-29T01:13:33.027Z,1022.11
2019-04-29T01:14:33.029Z,1022.10
2019-04-29T01:15:02.940Z,1022.09
2019-04-29T01:15:33.018Z,1022.09
2019-04-29T01:16:02.936Z,1022.07
2019-04-29T01:17:02.938Z,1022.05
2019-04-29T01:17:34.168Z,1022.07
2019-04-29T01:18:02.932Z,1022.07
2019-04-29T01:18:35.100Z,1022.08
2019-04-29T01:19:04.948Z,1022.08
2019-04-29T01:20:02.939Z,1022.09
2019-04-29T01:20:33.039Z,1022.08
2019-04-29T01:21:02.942Z,1022.08
2019-04-29T01:21:33.100Z,1022.06
2019-04-29T01:22:32.998Z,1022.10
2019-04-29T01:23:02.939Z,1022.08
2019-04-29T01:23:33.010Z,1022.09
2019-04-29T01:24:33.000Z,1022.10
2019-04-29T01:25:02.946Z,1022.11
2019-04-29T01:25:33.034Z,1022.12
2019-04-29T01:26:02.940Z,1022.11
2019-04-29T01:27:02.943Z,1022.15
2019-04-29T01:27:32.995Z,1022.15
2019-04-29T01:28:04.186Z,1022.13
2019-04-29T01:28:33.001Z,1022.13
2019-04-29T01:29:05.163Z,1022.12
2019-04-29T01:30:02.941Z,1022.14
2019-04-29T01:30:33.003Z,1022.15
2019-04-29T01:31:02.939Z,1022.13
2019-04-29T01:32:02.942Z,1022.10
2019-04-29T01:32:33.003Z,1022.09
2019-04-29T01:33:02.946Z,1022.07
2019-04-29T01:33:32.998Z,1022.07
2019-04-29T01:34:33.038Z,1022.05
2019-04-29T01:35:02.940Z,1022.07
2019-04-29T01:35:33.012Z,1022.03
2019-04-29T01:36:02.938Z,1022.05
2019-04-29T01:37:02.946Z,1022.02
2019-04-29T01:37:33.025Z,1022.02
2019-04-29T01:38:02.937Z,1022.03
2019-04-29T01:38:34.148Z,1022.03
2019-04-29T01:39:35.112Z,1022.02
2019-04-29T01:40:02.948Z,1022.03
2019-04-29T01:40:33.002Z,1022.06
2019-04-29T01:41:02.965Z,1022.05
2019-04-29T01:41:33.042Z,1022.05
2019-04-29T01:42:32.996Z,1022.06
2019-04-29T01:43:02.951Z,1022.05
2019-04-29T01:43:33.004Z,1022.10
2019-04-29T01:44:02.947Z,1022.06
2019-04-29T01:45:02.942Z,1022.07
2019-04-29T01:45:33.008Z,1022.06
2019-04-29T01:46:02.944Z,1022.08
2019-04-29T01:46:33.009Z,1022.10
2019-04-29T01:47:33.005Z,1022.10
2019-04-29T01:48:02.938Z,1022.13
2019-04-29T01:48:33.020Z,1022.10
2019-04-29T01:49:04.279Z,1022.12
2019-04-29T01:50:05.120Z,1022.13
2019-04-29T01:50:33.000Z,1022.11
2019-04-29T01:51:02.947Z,1022.10
2019-04-29T01:51:33.026Z,1022.11
2019-04-29T01:52:33.001Z,1022.10
2019-04-29T01:53:02.954Z,1022.10
2019-04-29T01:53:33.006Z,1022.10
2019-04-29T01:54:03.365Z,1022.10
2019-04-29T01:55:02.959Z,1022.10
2019-04-29T01:55:33.006Z,1022.09
2019-04-29T01:56:02.944Z,1022.11
2019-04-29T01:56:33.036Z,1022.09
2019-04-29T01:57:33.000Z,1022.08
2019-04-29T01:58:02.947Z,1022.10
2019-04-29T01:58:33.010Z,1022.08
2019-04-29T01:59:02.957Z,1022.09
2019-04-29T01:59:34.112Z,1022.10
2019-04-29T02:00:03.946Z,1022.10
2019-04-29T02:00:35.103Z,1022.08
2019-04-29T02:01:33.014Z,1022.13
2019-04-29T02:02:33.087Z,1022.13
2019-04-29T02:03:02.950Z,1022.12
2019-04-29T02:03:33.002Z,1022.12
2019-04-29T02:04:02.958Z,1022.12
2019-04-29T02:05:02.946Z,1022.14
2019-04-29T02:05:33.004Z,1022.13
2019-04-29T02:06:02.946Z,1022.12
2019-04-29T02:06:33.008Z,1022.14
2019-04-29T02:07:33.014Z,1022.15
2019-04-29T02:08:02.946Z,1022.12
2019-04-29T02:08:33.009Z,1022.16
2019-04-29T02:09:02.946Z,1022.14
2019-04-29T02:10:04.205Z,1022.15
2019-04-29T02:10:33.008Z,1022.13
2019-04-29T02:11:07.187Z,1022.12
2019-04-29T02:11:33.094Z,1022.13
2019-04-29T02:12:33.010Z,1022.11
2019-04-29T02:13:02.950Z,1022.14
2019-04-29T02:13:33.006Z,1022.11
2019-04-29T02:14:02.948Z,1022.12
2019-04-29T02:15:02.952Z,1022.11
2019-04-29T02:15:33.008Z,1022.12
2019-04-29T02:16:02.950Z,1022.09
2019-04-29T02:16:33.010Z,1022.11
2019-04-29T02:17:33.008Z,1022.11
2019-04-29T02:18:02.953Z,1022.10
2019-04-29T02:18:33.010Z,1022.09
2019-04-29T02:19:03.024Z,1022.09
2019-04-29T02:20:02.944Z,1022.06
2019-04-29T02:20:34.154Z,1022.07
2019-04-29T02:21:02.988Z,1022.06
2019-04-29T02:21:37.096Z,1022.05
2019-04-29T02:22:33.037Z,1022.04
2019-04-29T02:23:02.959Z,1022.03
2019-04-29T02:23:33.002Z,1022.04
2019-04-29T02:24:02.950Z,1022.05
2019-04-29T02:25:02.950Z,1022.02
2019-04-29T02:25:33.004Z,1022.03
2019-04-29T02:26:02.956Z,1022.03
2019-04-29T02:26:33.029Z,1022.04
2019-04-29T02:27:33.050Z,1022.03
2019-04-29T02:28:02.959Z,1022.04
2019-04-29T02:28:33.004Z,1022.01
2019-04-29T02:29:02.949Z,1022.04
2019-04-29T02:30:02.963Z,1022.04
2019-04-29T02:30:33.020Z,1022.02
2019-04-29T02:31:04.157Z,1022.01
2019-04-29T02:31:33.012Z,1022.01
2019-04-29T02:32:05.182Z,1022.00
2019-04-29T02:32:33.050Z,1021.98
2019-04-29T02:33:33.176Z,1022.02
2019-04-29T02:34:02.946Z,1022.01
2019-04-29T02:35:02.951Z,1021.98
2019-04-29T02:35:33.009Z,1021.98
2019-04-29T02:36:02.959Z,1021.97
2019-04-29T02:36:33.022Z,1021.98
2019-04-29T02:37:33.049Z,1021.97
2019-04-29T02:38:02.956Z,1021.96
2019-04-29T02:38:33.026Z,1021.95
2019-04-29T02:39:02.964Z,1021.97
2019-04-29T02:39:33.018Z,1021.97
2019-04-29T02:40:33.025Z,1021.96
2019-04-29T02:41:02.958Z,1021.98
2019-04-29T02:41:34.120Z,1021.98
2019-04-29T02:42:02.958Z,1021.99
2019-04-29T02:42:35.109Z,1022.01
2019-04-29T02:43:33.020Z,1022.02
2019-04-29T02:44:02.973Z,1022.01
2019-04-29T02:44:33.009Z,1022.03
2019-04-29T02:45:33.028Z,1022.04
2019-04-29T02:46:02.961Z,1022.05
2019-04-29T02:46:33.036Z,1022.06
2019-04-29T02:47:02.970Z,1022.04
2019-04-29T02:48:02.958Z,1022.02
2019-04-29T02:48:36.020Z,1022.03
2019-04-29T02:49:02.958Z,1022.05
2019-04-29T02:49:33.019Z,1022.04
2019-04-29T02:50:33.016Z,1022.03
2019-04-29T02:51:02.950Z,1022.05
2019-04-29T02:51:33.025Z,1022.04
2019-04-29T02:52:04.089Z,1022.05
2019-04-29T02:53:05.072Z,1022.07
2019-04-29T02:53:33.023Z,1022.06
2019-04-29T02:54:02.950Z,1022.08
2019-04-29T02:54:33.148Z,1022.10
2019-04-29T02:55:33.019Z,1022.07
2019-04-29T02:56:02.959Z,1022.08
2019-04-29T02:56:33.013Z,1022.06
2019-04-29T02:57:02.970Z,1022.07
2019-04-29T02:58:02.961Z,1022.03
2019-04-29T02:58:33.069Z,1022.04
2019-04-29T02:59:02.959Z,1022.05
2019-04-29T02:59:33.022Z,1022.04
2019-04-29T03:00:33.017Z,1022.04
2019-04-29T03:01:02.966Z,1022.04
2019-04-29T03:01:33.025Z,1022.03
2019-04-29T03:02:02.960Z,1022.04
2019-04-29T03:02:34.216Z,1022.03
2019-04-29T03:03:35.151Z,1022.01
2019-04-29T03:04:02.956Z,1022.01
2019-04-29T03:04:33.016Z,1022.00
2019-04-29T03:05:02.976Z,1021.99
2019-04-29T03:06:02.954Z,1022.01
2019-04-29T03:06:33.018Z,1021.99
2019-04-29T03:07:02.962Z,1021.99
2019-04-29T03:07:33.023Z,1022.01
2019-04-29T03:08:33.018Z,1022.01
2019-04-29T03:09:02.961Z,1022.01
2019-04-29T03:09:33.021Z,1022.00
2019-04-29T03:10:03.026Z,1022.00
2019-04-29T03:11:02.964Z,1022.00
2019-04-29T03:11:33.025Z,1022.00
2019-04-29T03:12:03.962Z,1022.01
2019-04-29T03:12:33.035Z,1022.00
2019-04-29T03:13:04.142Z,1022.00
2019-04-29T03:14:05.084Z,1022.03
2019-04-29T03:14:33.030Z,1022.01
2019-04-29T03:15:03.078Z,1022.02
2019-04-29T03:15:33.045Z,1022.03
2019-04-29T03:16:33.068Z,1022.03
2019-04-29T03:17:02.986Z,1022.06
2019-04-29T03:17:33.018Z,1022.04
2019-04-29T03:18:33.029Z,1022.05
2019-04-29T03:19:03.007Z,1022.05
2019-04-29T03:19:33.026Z,1022.04
2019-04-29T03:20:02.973Z,1022.06
2019-04-29T03:21:02.956Z,1022.06
2019-04-29T03:21:33.091Z,1022.06
2019-04-29T03:22:02.956Z,1022.06
2019-04-29T03:22:33.025Z,1022.07
2019-04-29T03:23:02.982Z,1022.05
2019-04-29T03:23:34.102Z,1022.06
2019-04-29T03:24:37.077Z,1022.07
2019-04-29T03:25:02.962Z,1022.07
2019-04-29T03:25:33.039Z,1022.05
2019-04-29T03:26:36.205Z,1022.05
2019-04-29T03:27:02.961Z,1022.04
2019-04-29T03:27:33.034Z,1022.04
2019-04-29T03:28:02.968Z,1022.03
2019-04-29T03:29:02.968Z,1022.04
2019-04-29T03:29:33.029Z,1022.03
2019-04-29T03:30:02.973Z,1022.05
2019-04-29T03:30:33.021Z,1022.02
2019-04-29T03:31:39.241Z,1022.03
2019-04-29T03:32:02.988Z,1022.04
2019-04-29T03:32:33.026Z,1022.02
2019-04-29T03:33:02.966Z,1022.03
2019-04-29T03:33:33.051Z,1022.06
2019-04-29T03:34:04.180Z,1022.03
2019-04-29T03:34:33.091Z,1022.05
2019-04-29T03:35:07.162Z,1022.02
2019-04-29T03:36:33.020Z,1022.06
2019-04-29T03:37:03.133Z,1022.06
2019-04-29T03:37:33.030Z,1022.07
2019-04-29T03:38:02.963Z,1022.06
2019-04-29T03:39:02.964Z,1022.08
2019-04-29T03:39:33.026Z,1022.08
2019-04-29T03:40:02.964Z,1022.12
2019-04-29T03:40:33.061Z,1022.10
2019-04-29T03:41:33.028Z,1022.11
2019-04-29T03:42:06.868Z,1022.10
2019-04-29T03:42:33.024Z,1022.12
2019-04-29T03:43:02.971Z,1022.14
2019-04-29T03:44:02.970Z,1022.12
2019-04-29T03:44:34.172Z,1022.11
2019-04-29T03:45:02.971Z,1022.11
2019-04-29T03:45:35.243Z,1022.12
2019-04-29T03:46:33.051Z,1022.16
2019-04-29T03:47:02.968Z,1022.13
2019-04-29T03:47:33.040Z,1022.11
2019-04-29T03:48:02.995Z,1022.13
2019-04-29T03:49:02.970Z,1022.12
2019-04-29T03:49:33.039Z,1022.12
2019-04-29T03:50:03.011Z,1022.12
2019-04-29T03:50:33.028Z,1022.13
2019-04-29T03:51:33.025Z,1022.13
2019-04-29T03:52:02.974Z,1022.12
2019-04-29T03:52:33.045Z,1022.12
2019-04-29T03:53:02.963Z,1022.11
2019-04-29T03:54:02.965Z,1022.13
2019-04-29T03:54:33.032Z,1022.15
2019-04-29T03:55:04.166Z,1022.12
2019-04-29T03:55:40.416Z,1022.15
2019-04-29T03:56:05.155Z,1022.16
2019-04-29T03:56:33.076Z,1022.16
2019-04-29T03:57:33.031Z,1022.16
2019-04-29T03:58:03.143Z,1022.15
2019-04-29T03:59:02.971Z,1022.17
2019-04-29T03:59:33.025Z,1022.15
2019-04-29T04:00:02.974Z,1022.14
2019-04-29T04:00:33.036Z,1022.14
2019-04-29T04:01:33.059Z,1022.17
2019-04-29T04:02:02.974Z,1022.18
2019-04-29T04:02:33.032Z,1022.17
2019-04-29T04:03:02.970Z,1022.20
2019-04-29T04:03:33.043Z,1022.18
2019-04-29T04:04:33.031Z,1022.16
2019-04-29T04:05:02.972Z,1022.21
2019-04-29T04:05:34.202Z,1022.22
2019-04-29T04:06:37.073Z,1022.25
2019-04-29T04:07:04.969Z,1022.20
2019-04-29T04:07:33.036Z,1022.23
2019-04-29T04:08:02.968Z,1022.20
2019-04-29T04:08:33.032Z,1022.21
2019-04-29T04:09:07.980Z,1022.24
2019-04-29T04:09:33.044Z,1022.23
2019-04-29T04:10:02.970Z,1022.23
2019-04-29T04:10:33.091Z,1022.23
2019-04-29T04:11:33.041Z,1022.23
2019-04-29T04:12:03.000Z,1022.20
2019-04-29T04:12:33.030Z,1022.21
2019-04-29T04:13:02.974Z,1022.24
2019-04-29T04:13:33.036Z,1022.20
2019-04-29T04:14:33.032Z,1022.21
2019-04-29T04:15:02.974Z,1022.23
2019-04-29T04:15:33.115Z,1022.24
2019-04-29T04:16:04.239Z,1022.25
2019-04-29T04:17:05.070Z,1022.24
2019-04-29T04:17:33.047Z,1022.24
2019-04-29T04:18:02.978Z,1022.23
2019-04-29T04:18:33.066Z,1022.26
2019-04-29T04:19:33.042Z,1022.26
2019-04-29T04:20:02.971Z,1022.25
2019-04-29T04:20:33.036Z,1022.24
2019-04-29T04:21:03.982Z,1022.26
2019-04-29T04:21:33.117Z,1022.28
2019-04-29T04:22:33.042Z,1022.29
2019-04-29T04:23:02.990Z,1022.26
2019-04-29T04:23:33.050Z,1022.28
2019-04-29T04:24:33.042Z,1022.26
2019-04-29T04:25:03.002Z,1022.28
2019-04-29T04:25:33.029Z,1022.29
2019-04-29T04:26:34.127Z,1022.28
2019-04-29T04:27:02.974Z,1022.28
2019-04-29T04:27:37.061Z,1022.28
2019-04-29T04:28:02.976Z,1022.26
2019-04-29T04:28:33.034Z,1022.29
2019-04-29T04:29:02.985Z,1022.31
2019-04-29T04:29:33.108Z,1022.29
2019-04-29T04:30:02.983Z,1022.27
2019-04-29T04:30:33.046Z,1022.25
2019-04-29T04:31:08.022Z,1022.28
2019-04-29T04:31:33.079Z,1022.30
2019-04-29T04:32:33.039Z,1022.30
2019-04-29T04:33:02.982Z,1022.29
2019-04-29T04:33:33.034Z,1022.30
2019-04-29T04:34:03.052Z,1022.31
2019-04-29T04:34:33.040Z,1022.29
2019-04-29T04:35:33.045Z,1022.33
2019-04-29T04:36:33.046Z,1022.33
2019-04-29T04:37:04.211Z,1022.35
2019-04-29T04:37:33.045Z,1022.34
2019-04-29T04:38:05.179Z,1022.38
2019-04-29T04:38:33.042Z,1022.37
2019-04-29T04:39:33.215Z,1022.38
2019-04-29T04:40:02.977Z,1022.39
2019-04-29T04:40:33.046Z,1022.39
2019-04-29T04:41:33.038Z,1022.41
2019-04-29T04:42:03.015Z,1022.41
2019-04-29T04:42:33.081Z,1022.40
2019-04-29T04:43:02.986Z,1022.38
2019-04-29T04:44:02.995Z,1022.37
2019-04-29T04:44:33.040Z,1022.37
2019-04-29T04:45:02.983Z,1022.35
2019-04-29T04:45:33.046Z,1022.36
2019-04-29T04:46:33.055Z,1022.32
2019-04-29T04:47:02.986Z,1022.34
2019-04-29T04:47:34.353Z,1022.32
2019-04-29T04:48:02.994Z,1022.29
2019-04-29T04:48:37.079Z,1022.30
2019-04-29T04:49:02.987Z,1022.28
2019-04-29T04:49:33.042Z,1022.23
2019-04-29T04:50:02.981Z,1022.25
2019-04-29T04:50:33.053Z,1022.27
2019-04-29T04:51:33.051Z,1022.28
2019-04-29T04:52:02.977Z,1022.25
2019-04-29T04:52:33.081Z,1022.26
2019-04-29T04:53:02.985Z,1022.27
2019-04-29T04:53:33.039Z,1022.27
2019-04-29T04:54:33.046Z,1022.25
2019-04-29T04:55:02.977Z,1022.29
2019-04-29T04:55:33.043Z,1022.28
2019-04-29T04:56:33.043Z,1022.27
2019-04-29T04:57:02.978Z,1022.29
2019-04-29T04:57:33.048Z,1022.27
2019-04-29T04:58:04.202Z,1022.28
2019-04-29T04:58:33.053Z,1022.27
2019-04-29T04:59:05.160Z,1022.27
2019-04-29T04:59:33.043Z,1022.30
2019-04-29T05:00:33.062Z,1022.30
2019-04-29T05:01:03.042Z,1022.32
2019-04-29T05:01:33.324Z,1022.33
2019-04-29T05:02:03.068Z,1022.33
2019-04-29T05:02:33.041Z,1022.37
2019-04-29T05:03:03.046Z,1022.42
2019-04-29T05:03:33.047Z,1022.43
2019-04-29T05:04:33.059Z,1022.44
2019-04-29T05:05:02.987Z,1022.46
2019-04-29T05:05:33.052Z,1022.44
2019-04-29T05:06:03.221Z,1022.46
2019-04-29T05:06:33.044Z,1022.50
2019-04-29T05:07:33.077Z,1022.51
2019-04-29T05:08:03.001Z,1022.51
2019-04-29T05:08:34.488Z,1022.50
2019-04-29T05:09:37.083Z,1022.52
2019-04-29T05:10:02.976Z,1022.54
2019-04-29T05:10:33.051Z,1022.54
2019-04-29T05:11:02.984Z,1022.54
2019-04-29T05:11:33.047Z,1022.56
2019-04-29T05:12:02.984Z,1022.55
2019-04-29T05:12:33.045Z,1022.59
2019-04-29T05:13:02.982Z,1022.60
2019-04-29T05:13:33.065Z,1022.63
2019-04-29T05:14:33.043Z,1022.66
2019-04-29T05:15:02.987Z,1022.65
2019-04-29T05:15:33.043Z,1022.67
2019-04-29T05:16:33.047Z,1022.65
2019-04-29T05:17:03.003Z,1022.64
2019-04-29T05:17:33.045Z,1022.63
2019-04-29T05:18:02.988Z,1022.62
2019-04-29T05:18:33.045Z,1022.60
2019-04-29T05:19:04.146Z,1022.61
2019-04-29T05:19:33.049Z,1022.63
2019-04-29T05:20:05.096Z,1022.60
2019-04-29T05:20:33.050Z,1022.59
2019-04-29T05:21:33.145Z,1022.59
2019-04-29T05:22:02.988Z,1022.58
2019-04-29T05:22:33.056Z,1022.57
2019-04-29T05:23:02.993Z,1022.55
2019-04-29T05:23:33.057Z,1022.57
2019-04-29T05:24:03.401Z,1022.56
2019-04-29T05:24:33.044Z,1022.57
2019-04-29T05:25:33.064Z,1022.55
2019-04-29T05:26:33.078Z,1022.59
2019-04-29T05:27:02.981Z,1022.61
2019-04-29T05:27:33.067Z,1022.61
2019-04-29T05:28:02.997Z,1022.63
2019-04-29T05:28:33.045Z,1022.65
2019-04-29T05:29:34.397Z,1022.65
2019-04-29T05:30:02.987Z,1022.66
2019-04-29T05:30:37.073Z,1022.66
2019-04-29T05:31:33.061Z,1022.66
2019-04-29T05:32:02.987Z,1022.67
2019-04-29T05:32:33.052Z,1022.68
2019-04-29T05:33:02.996Z,1022.66
2019-04-29T05:33:33.048Z,1022.66
2019-04-29T05:34:33.096Z,1022.67
2019-04-29T05:35:03.005Z,1022.66
2019-04-29T05:35:33.044Z,1022.67
2019-04-29T05:36:04.992Z,1022.66
2019-04-29T05:36:39.227Z,1022.70
2019-04-29T05:37:33.063Z,1022.69
2019-04-29T05:38:02.998Z,1022.68
2019-04-29T05:38:33.054Z,1022.72
2019-04-29T05:39:33.045Z,1022.70
2019-04-29T05:40:04.120Z,1022.70
2019-04-29T05:40:33.050Z,1022.69
2019-04-29T05:41:07.074Z,1022.71
2019-04-29T05:41:36.369Z,1022.74
2019-04-29T05:42:33.054Z,1022.73
2019-04-29T05:43:05.997Z,1022.72
2019-04-29T05:43:35.056Z,1022.72
2019-04-29T05:44:33.088Z,1022.75
2019-04-29T05:45:03.035Z,1022.73
2019-04-29T05:45:33.051Z,1022.74
2019-04-29T05:46:02.992Z,1022.73
2019-04-29T05:46:33.059Z,1022.72
2019-04-29T05:47:33.049Z,1022.78
2019-04-29T05:48:03.004Z,1022.77
2019-04-29T05:48:35.051Z,1022.76
2019-04-29T05:49:07.538Z,1022.76
2019-04-29T05:49:33.059Z,1022.76
2019-04-29T05:50:34.135Z,1022.76
2019-04-29T05:51:03.037Z,1022.75
2019-04-29T05:51:37.121Z,1022.74
2019-04-29T05:52:05.007Z,1022.75
2019-04-29T05:52:39.350Z,1022.74
2019-04-29T05:53:33.061Z,1022.75
2019-04-29T05:54:02.990Z,1022.76
2019-04-29T05:54:35.057Z,1022.77
2019-04-29T05:55:33.092Z,1022.79
2019-04-29T05:56:02.987Z,1022.77
2019-04-29T05:56:33.048Z,1022.79
2019-04-29T05:57:33.055Z,1022.80
2019-04-29T05:58:04.992Z,1022.83
2019-04-29T05:58:39.522Z,1022.83
2019-04-29T05:59:02.997Z,1022.84
2019-04-29T05:59:33.048Z,1022.87
2019-04-29T06:00:33.057Z,1022.87
2019-04-29T06:01:04.186Z,1022.90
2019-04-29T06:01:33.047Z,1022.89
2019-04-29T06:02:05.135Z,1022.88
2019-04-29T06:02:38.772Z,1022.90
2019-04-29T06:03:39.493Z,1022.92
2019-04-29T06:04:02.997Z,1022.89
2019-04-29T06:04:33.067Z,1022.90
2019-04-29T06:05:33.180Z,1022.91
2019-04-29T06:06:03.062Z,1022.89
2019-04-29T06:06:33.052Z,1022.92
2019-04-29T06:07:33.058Z,1022.95
2019-04-29T06:08:04.007Z,1022.97
2019-04-29T06:08:38.973Z,1022.97
2019-04-29T06:09:02.996Z,1022.99
2019-04-29T06:09:33.058Z,1022.99
2019-04-29T06:10:33.057Z,1023.03
2019-04-29T06:11:02.997Z,1023.04
2019-04-29T06:11:34.177Z,1023.06
2019-04-29T06:12:37.071Z,1023.07
2019-04-29T06:13:02.993Z,1023.07
2019-04-29T06:13:33.057Z,1023.09
2019-04-29T06:14:02.997Z,1023.10
2019-04-29T06:14:33.056Z,1023.11
2019-04-29T06:15:33.057Z,1023.12
2019-04-29T06:16:02.999Z,1023.12
2019-04-29T06:16:33.086Z,1023.10
2019-04-29T06:17:08.012Z,1023.12
2019-04-29T06:17:33.058Z,1023.14
2019-04-29T06:18:33.055Z,1023.14
2019-04-29T06:19:08.023Z,1023.13
2019-04-29T06:19:39.203Z,1023.15
2019-04-29T06:20:33.061Z,1023.10
2019-04-29T06:21:09.500Z,1023.12
2019-04-29T06:21:33.195Z,1023.13
2019-04-29T06:22:07.108Z,1023.14
2019-04-29T06:22:33.059Z,1023.10
2019-04-29T06:23:05.081Z,1023.15
2019-04-29T06:23:33.068Z,1023.15
2019-04-29T06:24:10.085Z,1023.14
2019-04-29T06:24:36.791Z,1023.15
2019-04-29T06:25:33.064Z,1023.12
2019-04-29T06:26:03.005Z,1023.15
2019-04-29T06:26:33.208Z,1023.13
2019-04-29T06:27:35.059Z,1023.12
2019-04-29T06:28:02.998Z,1023.15
2019-04-29T06:28:33.069Z,1023.17
2019-04-29T06:29:05.626Z,1023.17
2019-04-29T06:29:33.222Z,1023.16
2019-04-29T06:30:06.013Z,1023.17
2019-04-29T06:30:33.056Z,1023.17
2019-04-29T06:31:33.062Z,1023.19
2019-04-29T06:32:34.143Z,1023.18
2019-04-29T06:33:03.003Z,1023.14
2019-04-29T06:33:37.079Z,1023.17
2019-04-29T06:34:06.550Z,1023.16
2019-04-29T06:34:41.706Z,1023.18
2019-04-29T06:35:33.058Z,1023.20
2019-04-29T06:36:03.010Z,1023.19
2019-04-29T06:36:33.066Z,1023.20
2019-04-29T06:37:03.047Z,1023.22
2019-04-29T06:37:33.058Z,1023.19
2019-04-29T06:38:33.065Z,1023.20
2019-04-29T06:39:03.001Z,1023.20
2019-04-29T06:39:33.063Z,1023.23
2019-04-29T06:40:36.917Z,1023.21
2019-04-29T06:41:09.642Z,1023.21
2019-04-29T06:41:33.066Z,1023.22
2019-04-29T06:42:35.065Z,1023.22
2019-04-29T06:43:04.111Z,1023.25
2019-04-29T06:43:33.064Z,1023.22
2019-04-29T06:44:15.882Z,1023.22
2019-04-29T06:44:33.059Z,1023.22
2019-04-29T06:45:33.062Z,1023.25
2019-04-29T06:46:02.999Z,1023.23
2019-04-29T06:46:33.066Z,1023.26
2019-04-29T06:47:33.069Z,1023.27
2019-04-29T06:48:03.003Z,1023.26
2019-04-29T06:48:33.203Z,1023.30
2019-04-29T06:49:10.278Z,1023.25
2019-04-29T06:49:33.062Z,1023.26
2019-04-29T06:50:33.061Z,1023.28
2019-04-29T06:51:03.013Z,1023.25
2019-04-29T06:51:33.072Z,1023.25
2019-04-29T06:52:33.087Z,1023.28
2019-04-29T06:53:04.370Z,1023.28
2019-04-29T06:53:34.143Z,1023.27
2019-04-29T06:54:03.004Z,1023.29
2019-04-29T06:54:37.084Z,1023.28
2019-04-29T06:55:33.064Z,1023.28
2019-04-29T06:56:03.006Z,1023.27
2019-04-29T06:56:33.079Z,1023.27
2019-04-29T06:57:33.066Z,1023.30
2019-04-29T06:58:03.004Z,1023.31
2019-04-29T06:58:38.407Z,1023.31
2019-04-29T06:59:03.006Z,1023.29
2019-04-29T06:59:33.077Z,1023.31
2019-04-29T07:00:33.071Z,1023.32
2019-04-29T07:01:05.012Z,1023.30
2019-04-29T07:01:38.716Z,1023.31
2019-04-29T07:02:33.071Z,1023.31
2019-04-29T07:03:03.014Z,1023.28
2019-04-29T07:03:33.069Z,1023.27
2019-04-29T07:04:04.133Z,1023.28
2019-04-29T07:04:39.488Z,1023.23
2019-04-29T07:05:05.103Z,1023.27
2019-04-29T07:05:33.079Z,1023.28
2019-04-29T07:06:33.064Z,1023.26
2019-04-29T07:07:33.073Z,1023.29
2019-04-29T07:08:03.064Z,1023.24
2019-04-29T07:08:33.062Z,1023.26
2019-04-29T07:09:03.012Z,1023.26
2019-04-29T07:09:33.070Z,1023.27
2019-04-29T07:10:33.068Z,1023.30
2019-04-29T07:11:05.084Z,1023.30
2019-04-29T07:11:38.397Z,1023.31
2019-04-29T07:12:07.987Z,1023.30
2019-04-29T07:12:33.342Z,1023.32
2019-04-29T07:13:03.131Z,1023.30
2019-04-29T07:13:33.082Z,1023.29
2019-04-29T07:14:40.178Z,1023.28
2019-04-29T07:15:37.080Z,1023.29
2019-04-29T07:16:03.016Z,1023.27
2019-04-29T07:16:34.079Z,1023.27
2019-04-29T07:17:07.212Z,1023.29
2019-04-29T07:17:36.347Z,1023.30
2019-04-29T07:18:33.093Z,1023.29
2019-04-29T07:19:03.026Z,1023.28
2019-04-29T07:19:33.066Z,1023.32
2019-04-29T07:20:05.012Z,1023.32
2019-04-29T07:20:38.765Z,1023.31
2019-04-29T07:21:33.147Z,1023.33
2019-04-29T07:22:33.128Z,1023.33
2019-04-29T07:23:04.018Z,1023.35
2019-04-29T07:23:33.116Z,1023.33
2019-04-29T07:24:03.011Z,1023.34
2019-04-29T07:24:33.069Z,1023.36
2019-04-29T07:25:04.167Z,1023.36
2019-04-29T07:25:33.080Z,1023.34
2019-04-29T07:26:05.106Z,1023.35
2019-04-29T07:26:33.075Z,1023.35
2019-04-29T07:27:04.445Z,1023.35